NWS Home NWS Lubbock West Texas Mesonet Central Sector Latest Conditions as of 0758 PM, Wed Jul 17, 2019

Latest   N   C   S   Daily Sum   3hrΔ   24hrΔ   Soil Data 
Site Map   24hr Precip   72hr Precip   Google Plot


Station Time of Last Temp Dew Pt. RH Wind Direction Wind Speed Wind Gust Max Wind Max Temp Min Temp Max RH Min RH Altimeter 1HR Rain Today's Rain Solar Rad
Abernathy 5ENE  07:50 PM 93 53 28% S1317 33 mph 180° @ 0235 PM 96 72 75 25 29.96" 0 0.00 153
Aiken 3WSW  07:50 PM 91 61 36% S1619 29 mph 198° @ 0221 PM 96 73 72 28 29.96" 0 0.00 154
Amherst 1NE  07:50 PM 90 57 34% SE1317 25 mph 182° @ 0245 PM 94 69 76 28 29.95" 0 0.00 88
Anton 6SSW  07:50 PM 93 53 27% SE1721 28 mph 176° @ 0125 PM 97 71 71 24 29.95" 0 0.00 154
Aspermont 3NE  07:50 PM 95 64 37% S1419 25 mph 158° @ 0215 PM 99 77 78 30 29.89" 0 0.00 135
Bootleg 11WNW  07:50 PM 90 56 31% S2024 33 mph 201° @ 0931 AM 96 68 65 26 29.99" 0 0.00 158
Brownfield 2S  04:05 PM M M M% S1521 27 mph 163° @ 0150 PM -18** M 70 M --0 0.00 845
Caprock Canyons State Park  07:50 PM 93 59 31% S1521 34 mph 220° @ 0920 AM 100 77 61 21 29.91" 0 0.00 148
Childress 2NNE  07:50 PM 95 58 31% S1724 29 mph 154° @ 0725 PM 100 77 69 28 29.86" 0 0.00 146
Clarendon 2WSW  07:50 PM 95 57 30% S1925 33 mph 162° @ 0405 PM 100 75 66 20 29.90" 0 0.00 90
Claude 12SW  07:50 PM 94 55 27% S1115 29 mph 215° @ 0708 AM 99 76 61 22 29.93" 0 0.00 173
Crowell 1E  07:50 PM 94 67 41% S2024 32 mph 185° @ 0225 PM 102 79 69 28 29.87" 0 0.00 148
Denver City 7WNW  07:50 PM 91 51 26% S1016 28 mph 150° @ 0550 PM 97 72 71 19 29.96" 0 0.00 32
Dimmitt 2NE  07:50 PM 92 55 29% S1723 34 mph 181° @ 0120 PM 97 70 68 24 29.96" 0 0.00 173
Dora NM 2SW  07:50 PM 82 66 62% SE45 41 mph 239° @ 0505 PM 97 70 70 21 30.00" 0 0.06 57
Earth 9WSW  07:50 PM 91 54 29% SE1416 28 mph 154° @ 0112 PM 97 67 74 25 29.96" 0 0.00 43
Estelline 3SSE  07:50 PM 96 62 33% SE1720 28 mph 199° @ 0125 PM 102 74 76 28 29.85" 0 0.00 141
Floydada 2NNE  07:50 PM 92 56 31% S1522 28 mph 191° @ 0300 PM 96 69 79 27 29.95" 0 0.00 152
Fluvanna 3WNW  07:50 PM 92 61 38% SE1623 28 mph 161° @ 0525 PM 96 75 75 28 29.94" 0 0.00 143
Friona 2NE  07:50 PM 92 53 28% S2025 31 mph 177° @ 0330 PM 96 69 70 26 29.96" 0 0.00 182
Gail 2ESE  07:50 PM 94 59 33% SE1623 27 mph 154° @ 0120 PM 99 77 69 23 29.91" 0 0.00 146
Goodlett 3W  07:50 PM 96 61 32% SE2025 32 mph 157° @ 0625 PM 102 77 69 28 29.85" 0 0.00 147
Graham 5SSW  07:50 PM 93 57 31% SE1927 34 mph 137° @ 0540 PM 96 76 70 25 29.93" 0 0.00 143
Guthrie 10WSW  07:50 PM 94 57 31% S1724 28 mph 173° @ 0120 PM 100 75 72 27 29.88" 0 0.00 125
Hackberry 2 SSE  07:50 PM 95 65 37% S1316 33 mph 188° @ 0208 PM 100 78 71 31 29.87" 0 0.00 134
Happy 1E  07:50 PM 93 55 28% S1620 34 mph 209° @ 0208 PM 99 70 68 23 29.96" 0 0.00 170
Hart 3N  07:50 PM 90 56 32% S1218 28 mph 204° @ 0920 AM 96 68 83 23 29.95" 0 0.00 177
Haskell 1NW  07:50 PM 93 64 40% SE1218 27 mph 160° @ 0645 PM 97 79 75 34 29.88" 0 0.00 145
Hereford 2NW  07:50 PM 92 54 29% S1621 29 mph 204° @ 0120 PM 96 72 61 26 29.94" 0 0.00 166
Hobbs NM 5NW  07:50 PM 81 61 51% NW1317 27 mph 207° @ 0657 PM 99 73 66 18 30.03" 0 0.00 9
Jayton 1SSE  07:50 PM 93 63 39% SE1318 28 mph 162° @ 0315 PM 98 76 74 31 29.90" 0 0.00 156
Knox City 3NW  07:50 PM 97 63 35% S1823 29 mph 173° @ 0430 PM 101 79 74 29 29.87" 0 0.00 110
Lake Alan Henry 1NW  07:50 PM 94 64 38% S1519 29 mph 181° @ 0320 PM 99 78 71 25 29.91" 0 0.00 140
Lamesa 2SE  07:50 PM 92 60 35% SE1118 25 mph 137° @ 0350 PM 96 75 77 29 29.94" 0 0.00 160
Lesley 2S  07:50 PM 97 63 33% S1922 32 mph 185° @ 0457 PM 103 77 65 23 29.85" 0 0.00 140
Levelland 4S  07:50 PM 91 55 32% SE1621 26 mph 180° @ 0215 PM 96 73 73 25 29.96" 0 0.00 30
Lubbock 3WNW TTU  07:50 PM 93 51 25% SE1217 28 mph 178° @ 0415 PM 99 75 66 23 29.95" 0 0.00 171
Memphis 1NE  07:50 PM 95 59 32% SE1724 27 mph 170° @ 0330 PM 99 75 75 28 29.86" 0 0.00 123
Morton 1ENE  07:50 PM 90 51 27% SE1216 28 mph 155° @ 0235 PM 98 69 74 21 29.96" 0 0.00 72
Muleshoe 2SSW  07:50 PM 89 53 31% SE1316 25 mph 169° @ 0350 PM 96 69 71 25 29.95" 0 0.00 44
New Home  07:50 PM 93 56 28% S1014 27 mph 184° @ 1259 PM 98 74 71 24 29.96" 0 0.00 154
Northfield 1S  07:50 PM 95 58 30% S1421 31 mph 166° @ 0315 PM 100 76 66 26 29.87" 0 0.00 144
O'Donnell 1N  07:50 PM 93 53 27% SE1114 28 mph 169° @ 0150 PM 97 75 68 19 29.94" 0 0.00 132
Odell 4ENE  07:50 PM 94 65 39% S2025 28 mph 168° @ 0330 PM 100 79 70 32 29.87" 0 0.00 115
Olton 6S  07:50 PM 91 53 28% SE1519 28 mph 199° @ 0300 PM 96 68 77 23 29.95" 0 0.00 151
Paducah 10SW  07:50 PM 93 59 33% S1421 36 mph 186° @ 0240 PM 99 73 80 30 29.88" 0 0.00 132
Palo Duro 4E (JA Ranch)  07:50 PM 97 59 28% S1315 41 mph 218° @ 0259 PM 104 73 65 21 29.88" 0 0.00 135
Palo Duro Canyon SP Floor  07:50 PM 97 58 27% S811 27 mph 145° @ 0318 PM 102 79 58 20 29.88" 0 0.00 162
Palo Duro Canyon State Park Rim  07:50 PM 94 55 27% S1216 30 mph 194° @ 1045 AM 100 76 59 22 29.94" 0 0.00 154
Plains 3N  07:50 PM 91 57 33% SE1418 37 mph 174° @ 0140 PM 97 73 72 23 29.96" 0 0.00 70
Plainview 1S  07:50 PM 92 56 30% S1217 27 mph 195° @ 0205 PM 96 72 77 27 29.94" 0 0.00 149
Post 1NE  07:50 PM 94 56 29% S1724 27 mph 164° @ 0405 PM 99 77 64 22 29.91" 0 0.00 134
Ralls 1SE  07:50 PM 92 55 30% S1722 28 mph 159° @ 0400 PM 97 70 74 27 29.95" 0 0.00 157
Reese Center  07:50 PM 93 54 27% S1518 29 mph 179° @ 0250 PM 97 72 71 24 29.95" 0 0.00 146
Roaring Springs 3N  07:50 PM 92 61 38% S1119 28 mph 179° @ 0200 PM 96 72 85 36 29.91" 0 0.00 137
Rotan 5W  07:50 PM 93 64 39% SE1821 29 mph 143° @ 0643 PM 98 78 73 30 29.92" 0 0.00 136
Seagraves 1SW  07:50 PM 93 57 31% SE1014 24 mph 176° @ 0925 AM 98 73 74 28 29.95" 0 0.00 25
Seminole 2NNE  07:50 PM 93 54 28% S1015 25 mph 170° @ 0850 AM 98 73 70 22 29.94" 0 0.00 21
Seymour 3NW  07:50 PM 93 66 44% SE1420 29 mph 172° @ 0420 PM 97 76 79 35 29.88" 0 0.00 137
Silverton 7ESE  07:50 PM 92 57 32% S1521 31 mph 214° @ 0900 AM 98 76 63 22 29.94" 0 0.00 146
Slaton 2NE  07:50 PM 92 56 30% S1521 29 mph 186° @ 0305 PM 97 73 71 25 29.94" 0 0.00 118
Smyer  07:50 PM 92 55 29% S1114 29 mph 185° @ 0126 PM 96 72 74 26 29.96" 0 0.00 61
Snyder 3E  07:50 PM 92 60 36% SE1926 33 mph 167° @ 0405 PM 96 75 82 32 29.93" 0 0.00 126
Snyder 3SSW  07:50 PM 93 62 36% S1824 30 mph 153° @ 0336 PM 97 75 78 30 29.93" 0 0.00 138
South Plains 3ENE  07:50 PM 92 61 36% S1419 31 mph 178° @ 0346 PM 98 72 74 27 29.94" 0 0.00 134
Spur 1W  07:50 PM 95 59 31% S1319 27 mph 180° @ 0505 PM 99 73 71 25 29.89" 0 0.00 161
Stamford 5ESE  07:50 PM 95 65 38% S1516 30 mph 158° @ 0455 PM 99 79 76 32 29.89" 0 0.00 131
Sundown 8WSW  07:50 PM 88 55 35% SE914 26 mph 155° @ 0245 PM 95 71 77 26 29.96" 0 0.00 60
Tahoka 3NNE  07:50 PM 93 57 30% S1316 26 mph 185° @ 0955 AM 98 76 70 23 29.95" 0 0.00 147
Tatum NM 2SW  07:50 PM 80 56 46% SW1216 25 mph 172° @ 0115 PM 99 70 74 21 30.00" 0 0.00 22
Throckmorton 1SW  07:50 PM 93 68 45% SE1218 24 mph 154° @ 0404 PM 97 76 82 37 29.90" 0 0.00 123
Tulia 2ENE  07:50 PM 92 56 31% S1622 30 mph 213° @ 0910 AM 97 74 66 24 29.95" 0 0.00 158
Turkey 2WSW  07:50 PM 95 61 34% SE1823 31 mph 166° @ 0430 PM 100 79 63 26 29.88" 0 0.00 120
Umbarger 3NNE  07:50 PM 92 55 28% S1921 31 mph 181° @ 0103 PM 98 70 71 25 29.95" 0 0.00 159
Vigo Park  07:50 PM 93 57 30% S1620 32 mph 200° @ 1227 PM 99 72 71 23 29.95" 0 0.00 156
Weinert 2NNE  07:50 PM 94 65 38% SE1923 30 mph 171° @ 0431 PM 99 79 73 30 29.89" 0 0.00 123
Welch  07:50 PM 93 61 35% SE1518 27 mph 157° @ 0416 PM 97 75 74 28 29.95" 0 0.00 98
White River Lake 6NW  07:50 PM 93 56 30% S2024 29 mph 171° @ 0315 PM 98 73 72 28 29.92" 0 0.00 160
Wolfforth 6SSW  07:50 PM 93 55 29% S1418 29 mph 171° @ 0300 PM 97 73 73 25 29.96" 0 0.00 129

West Texas Mesonet Home   Site Map/Menu  NWS Lubbock Soil Data  Daily Summary Page  24hr Precip  72hr Precip  Google Plot